createdAt,value
2023-05-20T00:01:29.128Z,12.80
2023-05-20T00:03:57.563Z,12.80
2023-05-20T00:06:26.200Z,12.80
2023-05-20T00:08:55.594Z,12.90
2023-05-20T00:11:26.205Z,12.80
2023-05-20T00:13:54.446Z,12.80
2023-05-20T00:16:22.845Z,12.80
2023-05-20T00:18:51.264Z,12.80
2023-05-20T00:21:19.606Z,12.80
2023-05-20T00:23:47.835Z,12.80
2023-05-20T00:26:16.178Z,12.80
2023-05-20T00:28:47.771Z,12.80
2023-05-20T00:31:16.140Z,12.80
2023-05-20T00:33:44.423Z,12.70
2023-05-20T00:36:12.801Z,12.70
2023-05-20T00:38:40.981Z,12.70
2023-05-20T00:41:09.353Z,12.70
2023-05-20T00:43:37.616Z,12.70
2023-05-20T00:46:07.510Z,12.70
2023-05-20T00:48:42.405Z,12.70
2023-05-20T00:51:12.433Z,12.60
2023-05-20T00:53:41.029Z,12.60
2023-05-20T00:56:11.116Z,12.60
2023-05-20T00:58:39.906Z,12.60
2023-05-20T01:01:09.969Z,12.60
2023-05-20T01:03:39.134Z,12.60
2023-05-20T01:06:07.694Z,12.60
2023-05-20T01:08:36.151Z,12.60
2023-05-20T01:11:08.192Z,12.60
2023-05-20T01:13:44.345Z,12.50
2023-05-20T01:16:18.921Z,12.40
2023-05-20T01:18:49.554Z,12.40
2023-05-20T01:21:19.661Z,12.40
2023-05-20T01:23:49.306Z,12.30
2023-05-20T01:26:18.833Z,12.20
2023-05-20T01:28:47.736Z,12.10
2023-05-20T01:31:20.006Z,12.00
2023-05-20T01:33:52.304Z,12.00
2023-05-20T01:36:22.412Z,11.90
2023-05-20T01:38:53.905Z,11.80
2023-05-20T01:41:24.441Z,11.80
2023-05-20T01:43:52.890Z,11.70
2023-05-20T01:46:21.350Z,11.60
2023-05-20T01:48:50.909Z,11.60
2023-05-20T01:51:19.366Z,11.50
2023-05-20T01:53:47.594Z,11.50
2023-05-20T01:56:17.282Z,11.60
2023-05-20T01:58:45.787Z,11.60
2023-05-20T02:01:14.843Z,11.50
2023-05-20T02:03:44.963Z,11.50
2023-05-20T02:06:13.374Z,11.60
2023-05-20T02:08:41.622Z,11.60
2023-05-20T02:11:09.984Z,11.60
2023-05-20T02:13:41.504Z,11.60
2023-05-20T02:16:10.044Z,11.60
2023-05-20T02:18:38.478Z,11.70
2023-05-20T02:21:07.264Z,11.70
2023-05-20T02:23:35.957Z,11.70
2023-05-20T02:26:04.447Z,11.70
2023-05-20T02:28:32.687Z,11.70
2023-05-20T02:31:02.394Z,11.70
2023-05-20T02:33:33.534Z,11.70
2023-05-20T02:36:02.386Z,11.80
2023-05-20T02:38:31.756Z,11.80
2023-05-20T02:41:01.300Z,11.80
2023-05-20T02:43:30.778Z,11.80
2023-05-20T02:46:03.597Z,11.80
2023-05-20T02:48:32.032Z,11.90
2023-05-20T02:51:00.848Z,11.90
2023-05-20T02:53:29.202Z,11.90
2023-05-20T02:55:59.616Z,12.00
2023-05-20T02:58:29.292Z,12.00
2023-05-20T03:00:57.738Z,12.00
2023-05-20T03:03:28.107Z,12.00
2023-05-20T03:05:56.886Z,12.10
2023-05-20T03:08:25.682Z,12.10
2023-05-20T03:10:54.123Z,12.10
2023-05-20T03:13:22.766Z,12.10
2023-05-20T03:15:51.327Z,12.10
2023-05-20T03:18:19.563Z,12.20
2023-05-20T03:20:49.413Z,12.20
2023-05-20T03:23:17.787Z,12.20
2023-05-20T03:25:46.234Z,12.20
2023-05-20T03:28:14.493Z,12.20
2023-05-20T03:30:42.818Z,12.20
2023-05-20T03:33:12.281Z,12.20
2023-05-20T03:35:40.852Z,12.20
2023-05-20T03:38:10.379Z,12.20
2023-05-20T03:40:40.167Z,12.20
2023-05-20T03:43:08.449Z,12.30
2023-05-20T03:45:37.048Z,12.30
2023-05-20T03:48:08.059Z,12.20
2023-05-20T03:50:37.729Z,12.30
2023-05-20T03:53:06.433Z,12.20
2023-05-20T03:55:41.509Z,12.30
2023-05-20T03:58:10.771Z,12.20
2023-05-20T04:00:39.690Z,12.30
2023-05-20T04:03:08.654Z,12.30
2023-05-20T04:05:37.595Z,12.30
2023-05-20T04:08:13.462Z,12.30
2023-05-20T04:10:43.868Z,12.30
2023-05-20T04:13:13.272Z,12.30
2023-05-20T04:15:42.798Z,12.40
2023-05-20T04:18:13.083Z,12.30
2023-05-20T04:20:42.549Z,12.40
2023-05-20T04:23:11.707Z,12.40
2023-05-20T04:25:41.212Z,12.40
2023-05-20T04:28:14.010Z,12.50
2023-05-20T04:30:42.612Z,12.40
2023-05-20T04:33:11.599Z,12.50
2023-05-20T04:35:41.560Z,12.50
2023-05-20T04:38:10.869Z,12.50
2023-05-20T04:40:40.777Z,12.60
2023-05-20T04:43:11.064Z,12.60
2023-05-20T04:45:40.297Z,12.60
2023-05-20T04:48:09.473Z,12.70
2023-05-20T04:50:39.128Z,12.70
2023-05-20T04:53:08.965Z,12.70
2023-05-20T04:55:38.998Z,12.80
2023-05-20T04:58:08.394Z,12.80
2023-05-20T05:00:38.758Z,12.90
2023-05-20T05:03:08.442Z,12.90
2023-05-20T05:05:38.786Z,13.00
2023-05-20T05:08:07.958Z,13.10
2023-05-20T05:10:40.966Z,13.20
2023-05-20T05:13:11.113Z,13.20
2023-05-20T05:15:40.757Z,13.20
2023-05-20T05:18:09.744Z,13.30
2023-05-20T05:20:38.777Z,13.20
2023-05-20T05:23:07.447Z,13.30
2023-05-20T05:25:36.225Z,13.20
2023-05-20T05:28:04.911Z,13.30
2023-05-20T05:30:33.249Z,13.20
2023-05-20T05:33:05.282Z,13.30
2023-05-20T05:35:34.425Z,13.30
2023-05-20T05:38:03.104Z,13.30
2023-05-20T05:40:31.596Z,13.30
2023-05-20T05:43:00.357Z,13.30
2023-05-20T05:45:28.719Z,13.40
2023-05-20T05:47:57.639Z,13.40
2023-05-20T05:50:28.258Z,13.50
2023-05-20T05:52:56.626Z,13.60
2023-05-20T05:55:25.201Z,13.60
2023-05-20T05:57:56.167Z,13.70
2023-05-20T06:00:25.081Z,13.80
2023-05-20T06:02:53.501Z,13.90
2023-05-20T06:05:34.426Z,14.00
2023-05-20T06:08:03.177Z,14.00
2023-05-20T06:10:34.457Z,14.10
2023-05-20T06:13:03.119Z,14.10
2023-05-20T06:15:32.881Z,14.20
2023-05-20T06:18:01.822Z,14.20
2023-05-20T06:20:30.263Z,14.20
2023-05-20T06:23:00.271Z,14.20
2023-05-20T06:25:37.346Z,14.30
2023-05-20T06:28:06.395Z,14.30
2023-05-20T06:30:34.804Z,14.30
2023-05-20T06:33:03.566Z,14.40
2023-05-20T06:35:34.816Z,14.50
2023-05-20T06:38:05.908Z,14.50
2023-05-20T06:40:35.518Z,14.70
2023-05-20T06:43:03.878Z,14.80
2023-05-20T06:45:52.029Z,14.90
2023-05-20T06:48:25.399Z,15.00
2023-05-20T06:50:53.995Z,15.10
2023-05-20T06:53:23.772Z,15.20
2023-05-20T06:55:52.668Z,15.20
2023-05-20T06:58:22.362Z,15.20
2023-05-20T07:00:50.685Z,15.20
2023-05-20T07:03:19.084Z,15.10
2023-05-20T07:05:47.664Z,15.20
2023-05-20T07:08:16.058Z,15.30
2023-05-20T07:10:46.503Z,15.30
2023-05-20T07:13:18.329Z,15.40
2023-05-20T07:15:48.508Z,15.40
2023-05-20T07:18:17.976Z,15.40
2023-05-20T07:20:52.833Z,15.50
2023-05-20T07:23:40.955Z,15.50
2023-05-20T07:26:10.767Z,15.50
2023-05-20T07:28:39.642Z,15.60
2023-05-20T07:31:08.060Z,15.70
2023-05-20T07:33:42.982Z,15.90
2023-05-20T07:36:11.634Z,16.00
2023-05-20T07:38:49.726Z,16.00
2023-05-20T07:41:27.280Z,16.00
2023-05-20T07:43:56.025Z,16.00
2023-05-20T07:46:24.488Z,16.10
2023-05-20T07:48:53.153Z,16.20
2023-05-20T07:51:21.815Z,16.30
2023-05-20T07:53:50.674Z,16.50
2023-05-20T07:56:19.694Z,16.50
2023-05-20T07:58:55.501Z,16.60
2023-05-20T08:01:26.040Z,16.50
2023-05-20T08:03:55.593Z,16.60
2023-05-20T08:06:28.760Z,16.70
2023-05-20T08:08:58.857Z,16.90
2023-05-20T08:11:32.209Z,17.30
2023-05-20T08:14:03.066Z,17.80
2023-05-20T08:16:38.211Z,18.20
2023-05-20T08:19:06.661Z,18.20
2023-05-20T08:21:35.243Z,18.00
2023-05-20T08:24:05.360Z,17.70
2023-05-20T08:26:34.658Z,17.50
2023-05-20T08:29:04.343Z,17.30
2023-05-20T08:31:32.686Z,17.20
2023-05-20T08:34:01.562Z,17.10
2023-05-20T08:36:29.831Z,17.00
2023-05-20T08:38:58.229Z,17.00
2023-05-20T08:41:27.088Z,17.00
2023-05-20T08:43:56.996Z,16.90
2023-05-20T08:46:33.293Z,16.80
2023-05-20T08:49:03.192Z,16.70
2023-05-20T08:51:34.339Z,16.70
2023-05-20T08:54:05.664Z,16.70
2023-05-20T08:56:39.138Z,16.60
2023-05-20T08:59:12.274Z,16.70
2023-05-20T09:01:45.931Z,17.20
2023-05-20T09:04:19.711Z,17.80
2023-05-20T09:06:52.452Z,18.10
2023-05-20T09:09:22.686Z,18.40
2023-05-20T09:11:53.695Z,18.40
2023-05-20T09:14:23.625Z,18.30
2023-05-20T09:16:53.299Z,18.10
2023-05-20T09:19:24.467Z,17.90
2023-05-20T09:21:58.665Z,17.80
2023-05-20T09:24:29.763Z,17.60
2023-05-20T09:27:01.215Z,17.50
2023-05-20T09:29:30.821Z,17.50
2023-05-20T09:32:06.786Z,17.60
2023-05-20T09:34:36.711Z,17.70
2023-05-20T09:37:07.982Z,17.90
2023-05-20T09:39:51.276Z,18.10
2023-05-20T09:42:26.813Z,18.00
2023-05-20T09:44:56.322Z,18.60
2023-05-20T09:47:27.381Z,19.00
2023-05-20T09:49:56.579Z,19.10
2023-05-20T09:52:25.586Z,19.10
2023-05-20T09:54:57.354Z,18.90
2023-05-20T09:57:26.414Z,18.80
2023-05-20T09:59:55.151Z,18.90
2023-05-20T10:02:23.974Z,19.00
2023-05-20T10:04:56.827Z,19.20
2023-05-20T10:07:52.858Z,19.30
2023-05-20T10:10:35.044Z,19.50
2023-05-20T10:13:14.425Z,19.40
2023-05-20T10:15:51.172Z,19.40
2023-05-20T10:18:41.153Z,19.40
2023-05-20T10:21:18.527Z,19.40
2023-05-20T10:23:47.265Z,19.00
2023-05-20T10:26:15.586Z,18.80
2023-05-20T10:28:44.862Z,18.70
2023-05-20T10:31:18.120Z,18.50
2023-05-20T10:33:47.637Z,18.40
2023-05-20T10:36:27.941Z,18.50
2023-05-20T10:38:58.275Z,18.50
2023-05-20T10:41:28.743Z,18.60
2023-05-20T10:44:05.339Z,18.50
2023-05-20T10:46:46.283Z,18.40
2023-05-20T10:49:26.898Z,18.50
2023-05-20T10:51:57.381Z,18.50
2023-05-20T10:54:25.948Z,18.90
2023-05-20T10:56:54.882Z,19.30
2023-05-20T10:59:23.529Z,19.60
2023-05-20T11:01:53.641Z,19.70
2023-05-20T11:04:22.427Z,19.80
2023-05-20T11:06:55.807Z,19.80
2023-05-20T11:09:25.849Z,19.50
2023-05-20T11:11:55.830Z,19.30
2023-05-20T11:14:24.240Z,19.40
2023-05-20T11:16:54.143Z,19.60
2023-05-20T11:19:22.831Z,20.10
2023-05-20T11:21:51.434Z,20.30
2023-05-20T11:24:27.532Z,20.50
2023-05-20T11:26:57.401Z,20.10
2023-05-20T11:29:28.988Z,19.70
2023-05-20T11:31:57.411Z,19.60
2023-05-20T11:34:27.737Z,20.00
2023-05-20T11:37:00.748Z,20.30
2023-05-20T11:39:32.497Z,20.30
2023-05-20T11:42:01.039Z,20.10
2023-05-20T11:44:29.307Z,19.60
2023-05-20T11:47:01.692Z,19.80
2023-05-20T11:49:30.877Z,19.90
2023-05-20T11:51:59.489Z,19.80
2023-05-20T11:54:27.775Z,19.60
2023-05-20T11:56:57.477Z,19.40
2023-05-20T11:59:26.203Z,19.40
2023-05-20T12:01:54.451Z,20.10
2023-05-20T12:04:23.162Z,20.70
2023-05-20T12:06:53.063Z,21.20
2023-05-20T12:09:22.428Z,21.70
2023-05-20T12:11:50.996Z,22.20
2023-05-20T12:14:20.614Z,22.10
2023-05-20T12:16:48.965Z,21.30
2023-05-20T12:19:17.398Z,20.70
2023-05-20T12:21:47.213Z,20.50
2023-05-20T12:24:15.589Z,20.20
2023-05-20T12:26:44.102Z,20.00
2023-05-20T12:29:12.785Z,20.20
2023-05-20T12:31:42.781Z,21.10
2023-05-20T12:34:11.189Z,21.80
2023-05-20T12:36:39.434Z,22.00
2023-05-20T12:39:09.331Z,21.70
2023-05-20T12:41:37.559Z,21.30
2023-05-20T12:44:06.478Z,21.00
2023-05-20T12:46:34.854Z,21.10
2023-05-20T12:49:04.746Z,21.60
2023-05-20T12:51:32.949Z,22.00
2023-05-20T12:54:01.306Z,22.40
2023-05-20T12:56:30.444Z,22.60
2023-05-20T12:58:59.026Z,22.60
2023-05-20T13:01:27.440Z,22.80
2023-05-20T13:03:55.831Z,22.40
2023-05-20T13:06:26.171Z,22.10
2023-05-20T13:08:54.468Z,22.40
2023-05-20T13:11:22.799Z,22.70
2023-05-20T13:13:51.148Z,22.60
2023-05-20T13:16:19.709Z,22.20
2023-05-20T13:18:48.232Z,21.60
2023-05-20T13:21:16.576Z,21.40
2023-05-20T13:23:46.244Z,21.90
2023-05-20T13:26:14.685Z,22.50
2023-05-20T13:28:42.998Z,22.90
2023-05-20T13:31:11.342Z,23.00
2023-05-20T13:33:39.696Z,23.10
2023-05-20T13:36:08.401Z,23.20
2023-05-20T13:38:37.611Z,23.30
2023-05-20T13:41:07.348Z,23.20
2023-05-20T13:43:36.081Z,23.00
2023-05-20T13:46:04.426Z,22.90
2023-05-20T13:48:33.060Z,22.90
2023-05-20T13:51:01.778Z,23.20
2023-05-20T13:53:30.414Z,23.30
2023-05-20T13:55:59.241Z,23.40
2023-05-20T13:58:28.977Z,23.60
2023-05-20T14:00:57.360Z,23.80
2023-05-20T14:03:25.852Z,23.80
2023-05-20T14:05:54.482Z,23.90
2023-05-20T14:08:23.036Z,23.60
2023-05-20T14:10:54.600Z,23.50
2023-05-20T14:13:24.417Z,23.50
2023-05-20T14:15:54.764Z,23.40
2023-05-20T14:18:23.232Z,23.40
2023-05-20T14:20:51.483Z,23.30
2023-05-20T14:23:19.812Z,23.00
2023-05-20T14:25:48.029Z,23.00
2023-05-20T14:28:16.392Z,23.00
2023-05-20T14:30:44.566Z,23.10
2023-05-20T14:33:14.615Z,23.40
2023-05-20T14:35:42.902Z,23.40
2023-05-20T14:38:11.377Z,23.40
2023-05-20T14:40:39.806Z,23.40
2023-05-20T14:43:08.160Z,23.40
2023-05-20T14:45:36.466Z,23.40
2023-05-20T14:48:05.286Z,23.30
2023-05-20T14:50:34.923Z,23.30
2023-05-20T14:53:03.442Z,23.40
2023-05-20T14:55:31.632Z,23.20
2023-05-20T14:58:00.051Z,23.00
2023-05-20T15:00:28.313Z,22.70
2023-05-20T15:02:56.837Z,22.40
2023-05-20T15:05:25.076Z,22.30
2023-05-20T15:07:55.024Z,22.30
2023-05-20T15:10:23.358Z,22.40
2023-05-20T15:12:53.311Z,22.60
2023-05-20T15:15:22.080Z,22.30
2023-05-20T15:17:50.529Z,22.10
2023-05-20T15:20:18.855Z,22.00
2023-05-20T15:22:48.096Z,21.90
2023-05-20T15:25:17.968Z,22.10
2023-05-20T15:27:46.309Z,22.40
2023-05-20T15:30:15.526Z,22.80
2023-05-20T15:32:44.183Z,23.10
2023-05-20T15:35:12.457Z,23.50
2023-05-20T15:37:41.024Z,23.50
2023-05-20T15:40:10.346Z,23.20
2023-05-20T15:42:40.031Z,22.80
2023-05-20T15:45:09.698Z,22.50
2023-05-20T15:47:40.582Z,22.20
2023-05-20T15:50:11.139Z,22.00
2023-05-20T15:52:39.616Z,21.80
2023-05-20T15:55:09.113Z,21.50
2023-05-20T15:57:38.759Z,21.50
2023-05-20T16:00:10.324Z,21.80
2023-05-20T16:02:40.165Z,21.90
2023-05-20T16:05:09.148Z,21.90
2023-05-20T16:07:37.595Z,21.70
2023-05-20T16:10:06.640Z,21.50
2023-05-20T16:12:35.002Z,21.30
2023-05-20T16:15:04.776Z,21.10
2023-05-20T16:17:33.217Z,20.80
2023-05-20T16:20:01.546Z,20.60
2023-05-20T16:22:30.108Z,20.50
2023-05-20T16:24:58.253Z,20.40
2023-05-20T16:27:26.776Z,20.30
2023-05-20T16:29:54.963Z,20.20
2023-05-20T16:32:24.820Z,20.20
2023-05-20T16:34:54.516Z,20.10
2023-05-20T16:37:22.864Z,20.10
2023-05-20T16:39:51.242Z,20.00
2023-05-20T16:42:19.639Z,20.10
2023-05-20T16:44:49.727Z,20.10
2023-05-20T16:47:18.381Z,20.10
2023-05-20T16:49:47.869Z,19.90
2023-05-20T16:52:16.460Z,19.70
2023-05-20T16:54:44.832Z,19.60
2023-05-20T16:57:15.843Z,19.50
2023-05-20T16:59:44.041Z,19.50
2023-05-20T17:02:12.325Z,19.50
2023-05-20T17:04:40.654Z,19.50
2023-05-20T17:07:11.274Z,19.50
2023-05-20T17:09:39.546Z,19.50
2023-05-20T17:12:08.580Z,19.60
2023-05-20T17:14:36.914Z,19.70
2023-05-20T17:17:06.782Z,19.80
2023-05-20T17:19:35.246Z,19.80
2023-05-20T17:22:03.682Z,19.90
2023-05-20T17:24:34.948Z,19.90
2023-05-20T17:27:03.963Z,20.00
2023-05-20T17:29:32.154Z,20.00
2023-05-20T17:32:00.552Z,20.10
2023-05-20T17:34:29.628Z,20.20
2023-05-20T17:36:58.120Z,20.10
2023-05-20T17:39:26.364Z,20.10
2023-05-20T17:41:56.529Z,20.00
2023-05-20T17:44:24.841Z,19.80
2023-05-20T17:46:54.519Z,19.70
2023-05-20T17:49:23.134Z,19.60
2023-05-20T17:51:51.415Z,19.50
2023-05-20T17:54:19.622Z,19.40
2023-05-20T17:56:50.823Z,19.30
2023-05-20T17:59:21.716Z,19.20
2023-05-20T18:01:50.184Z,19.10
2023-05-20T18:04:18.709Z,19.00
2023-05-20T18:06:47.091Z,18.80
2023-05-20T18:09:15.457Z,18.80
2023-05-20T18:11:43.772Z,18.60
2023-05-20T18:14:12.187Z,18.60
2023-05-20T18:16:41.934Z,18.60
2023-05-20T18:19:10.185Z,18.60
2023-05-20T18:21:38.510Z,18.50
2023-05-20T18:24:07.158Z,18.50
2023-05-20T18:26:35.604Z,18.40
2023-05-20T18:29:04.249Z,18.40
2023-05-20T18:31:32.731Z,18.30
2023-05-20T18:34:02.964Z,18.20
2023-05-20T18:36:31.460Z,18.10
2023-05-20T18:38:59.637Z,18.10
2023-05-20T18:41:39.549Z,18.00
2023-05-20T18:44:14.804Z,17.90
2023-05-20T18:46:43.163Z,17.80
2023-05-20T18:49:12.851Z,17.80
2023-05-20T18:51:41.904Z,17.70
2023-05-20T18:54:10.280Z,17.60
2023-05-20T18:56:38.542Z,17.50
2023-05-20T18:59:06.930Z,17.40
2023-05-20T19:01:36.490Z,17.40
2023-05-20T19:04:05.105Z,17.30
2023-05-20T19:06:35.220Z,17.20
2023-05-20T19:09:03.694Z,17.10
2023-05-20T19:11:32.187Z,17.00
2023-05-20T19:14:00.670Z,17.00
2023-05-20T19:16:29.070Z,16.90
2023-05-20T19:18:57.418Z,16.90
2023-05-20T19:21:25.923Z,16.80
2023-05-20T19:23:56.158Z,16.70
2023-05-20T19:26:24.680Z,16.70
2023-05-20T19:28:53.006Z,16.60
2023-05-20T19:31:22.032Z,16.50
2023-05-20T19:33:50.609Z,16.50
2023-05-20T19:36:19.178Z,16.40
2023-05-20T19:38:47.833Z,16.30
2023-05-20T19:41:17.369Z,16.20
2023-05-20T19:43:45.669Z,16.10
2023-05-20T19:46:14.018Z,16.10
2023-05-20T19:48:42.375Z,16.00
2023-05-20T19:51:11.408Z,16.00
2023-05-20T19:53:39.801Z,16.00
2023-05-20T19:56:08.770Z,15.90
2023-05-20T19:58:38.447Z,15.90
2023-05-20T20:01:06.909Z,15.80
2023-05-20T20:03:35.234Z,15.80
2023-05-20T20:06:03.911Z,15.70
2023-05-20T20:08:33.156Z,15.70
2023-05-20T20:11:01.885Z,15.60
2023-05-20T20:13:30.496Z,15.60
2023-05-20T20:16:00.498Z,15.50
2023-05-20T20:18:28.962Z,15.50
2023-05-20T20:20:59.588Z,15.40
2023-05-20T20:23:28.657Z,15.40
2023-05-20T20:25:57.498Z,15.40
2023-05-20T20:28:26.180Z,15.40
2023-05-20T20:30:55.724Z,15.30
2023-05-20T20:33:25.864Z,15.30
2023-05-20T20:35:55.705Z,15.30
2023-05-20T20:38:24.160Z,15.30
2023-05-20T20:40:54.816Z,15.20
2023-05-20T20:43:23.271Z,15.20
2023-05-20T20:45:53.284Z,15.20
2023-05-20T20:48:27.236Z,15.10
2023-05-20T20:50:58.980Z,15.10
2023-05-20T20:53:27.754Z,15.10
2023-05-20T20:55:56.824Z,15.10
2023-05-20T20:58:27.236Z,15.10
2023-05-20T21:00:55.748Z,15.00
2023-05-20T21:03:26.339Z,15.00
2023-05-20T21:05:54.715Z,15.00
2023-05-20T21:08:27.614Z,15.00
2023-05-20T21:10:59.018Z,15.00
2023-05-20T21:13:28.428Z,14.90
2023-05-20T21:15:56.782Z,14.90
2023-05-20T21:18:25.514Z,14.90
2023-05-20T21:20:55.674Z,14.80
2023-05-20T21:23:25.813Z,14.80
2023-05-20T21:25:54.233Z,14.80
2023-05-20T21:28:23.329Z,14.80
2023-05-20T21:30:51.676Z,14.70
2023-05-20T21:33:20.447Z,14.70
2023-05-20T21:35:48.761Z,14.70
2023-05-20T21:38:17.022Z,14.70
2023-05-20T21:40:47.316Z,14.60
2023-05-20T21:43:15.694Z,14.60
2023-05-20T21:45:45.650Z,14.60
2023-05-20T21:48:14.113Z,14.50
2023-05-20T21:50:42.626Z,14.50
2023-05-20T21:53:11.437Z,14.50
2023-05-20T21:55:41.012Z,14.40
2023-05-20T21:58:11.564Z,14.40
2023-05-20T22:00:40.950Z,14.30
2023-05-20T22:03:09.302Z,14.30
2023-05-20T22:05:38.914Z,14.30
2023-05-20T22:08:07.889Z,14.30
2023-05-20T22:10:36.457Z,14.30
2023-05-20T22:13:05.489Z,14.20
2023-05-20T22:15:35.376Z,14.20
2023-05-20T22:18:07.661Z,14.20
2023-05-20T22:20:38.510Z,14.20
2023-05-20T22:23:06.711Z,14.20
2023-05-20T22:25:36.057Z,14.20
2023-05-20T22:28:05.297Z,14.20
2023-05-20T22:30:35.060Z,14.10
2023-05-20T22:33:03.836Z,14.10
2023-05-20T22:35:32.403Z,14.10
2023-05-20T22:38:01.182Z,14.00
2023-05-20T22:40:33.324Z,14.00
2023-05-20T22:43:01.579Z,13.90
2023-05-20T22:45:29.934Z,13.90
2023-05-20T22:47:59.608Z,13.90
2023-05-20T22:50:27.948Z,13.80
2023-05-20T22:52:56.258Z,13.80
2023-05-20T22:55:24.882Z,13.80
2023-05-20T22:57:53.203Z,13.70
2023-05-20T23:00:21.508Z,13.70
2023-05-20T23:02:52.191Z,13.70
2023-05-20T23:05:22.004Z,13.70
2023-05-20T23:07:52.524Z,13.70
2023-05-20T23:10:20.897Z,13.60
2023-05-20T23:12:49.114Z,13.70
2023-05-20T23:15:17.629Z,13.70
2023-05-20T23:17:45.985Z,13.60
2023-05-20T23:20:18.827Z,13.60
2023-05-20T23:22:48.433Z,13.60
2023-05-20T23:25:16.949Z,13.50
2023-05-20T23:27:45.475Z,13.50
2023-05-20T23:30:13.935Z,13.50
2023-05-20T23:32:42.484Z,13.50
2023-05-20T23:35:12.016Z,13.50
2023-05-20T23:37:40.999Z,13.50
2023-05-20T23:40:11.612Z,13.50
2023-05-20T23:42:40.188Z,13.50
2023-05-20T23:45:09.331Z,13.50
2023-05-20T23:47:37.812Z,13.50
2023-05-20T23:50:06.808Z,13.50
2023-05-20T23:52:35.120Z,13.40
2023-05-20T23:55:03.359Z,13.40
2023-05-20T23:57:32.961Z,13.40
